Time;durP1;ratioP1;P1;durP2;ratioP2;P2;SDS_P1;SDS_P2;PMS_P1;PMS_P2;Temp;Humidity;BMP_temperature;BMP_pressure;BME280_temperature;BME280_humidity;BME280_pressure;Samples;Min_cycle;Max_cycle;Signal;HPM_P1;HPM_P2
2021/04/21 00:01:31;;;;;;;20.27;9.63;;;5.80;99.90;;;;;;5020102;28;20208;-83
2021/04/21 00:04:00;;;;;;;17.33;9.47;;;5.70;99.90;;;;;;5016368;28;20302;-83
2021/04/21 00:06:27;;;;;;;16.57;9.60;;;5.60;99.90;;;;;;5017901;28;20196;-83
2021/04/21 00:08:56;;;;;;;15.90;9.10;;;5.60;99.90;;;;;;5015693;28;20216;-83
2021/04/21 00:11:24;;;;;;;15.97;8.80;;;5.50;99.90;;;;;;5021344;28;20672;-83
2021/04/21 00:13:51;;;;;;;19.43;9.70;;;5.50;99.90;;;;;;5015653;28;20700;-83
2021/04/21 00:16:18;;;;;;;17.43;9.40;;;5.40;99.90;;;;;;5017722;28;20207;-83
2021/04/21 00:18:46;;;;;;;16.90;9.63;;;5.40;99.90;;;;;;5018481;28;20223;-84
2021/04/21 00:21:13;;;;;;;17.47;9.13;;;5.40;99.90;;;;;;5040644;28;20181;-83
2021/04/21 00:23:40;;;;;;;20.00;9.30;;;5.30;99.90;;;;;;5036712;28;20204;-83
2021/04/21 00:26:12;;;;;;;15.53;8.77;;;5.20;99.90;;;;;;5033624;28;20656;-82
2021/04/21 00:28:39;;;;;;;17.77;9.10;;;5.20;99.90;;;;;;5015895;28;20203;-84
2021/04/21 00:31:08;;;;;;;19.17;9.77;;;5.10;99.90;;;;;;5012650;28;20303;-83
2021/04/21 00:33:56;;;;;;;21.63;8.97;;;5.10;99.90;;;;;;5017931;28;20216;-83
2021/04/21 00:36:25;;;;;;;18.13;8.90;;;5.00;99.90;;;;;;5014176;28;21191;-83
2021/04/21 00:38:53;;;;;;;19.93;8.97;;;5.00;99.90;;;;;;5014690;28;20688;-83
2021/04/21 00:41:31;;;;;;;18.20;9.10;;;5.00;99.90;;;;;;5013371;28;20204;-83
2021/04/21 00:44:04;;;;;;;18.00;8.73;;;4.90;99.90;;;;;;5013869;28;20219;-83
2021/04/21 00:46:34;;;;;;;18.37;9.13;;;4.70;99.90;;;;;;5017960;28;20196;-83
2021/04/21 00:49:19;;;;;;;21.40;9.10;;;4.60;99.90;;;;;;5015577;28;20219;-83
2021/04/21 00:51:49;;;;;;;17.47;9.00;;;4.60;99.90;;;;;;5011891;28;20236;-83
2021/04/21 00:54:23;;;;;;;16.57;9.13;;;4.50;99.90;;;;;;5013511;28;20239;-83
2021/04/21 00:57:02;;;;;;;17.53;8.97;;;4.40;99.90;;;;;;5013531;28;20235;-84
2021/04/21 00:59:42;;;;;;;18.63;9.00;;;4.40;99.90;;;;;;5013644;28;20203;-82
2021/04/21 01:02:11;;;;;;;18.17;9.17;;;4.40;99.90;;;;;;5015364;28;20200;-82
2021/04/21 01:04:40;;;;;;;20.63;9.40;;;4.30;99.90;;;;;;5012064;28;21072;-83
2021/04/21 01:07:09;;;;;;;18.30;9.10;;;4.20;99.90;;;;;;5012265;28;20294;-83
2021/04/21 01:09:39;;;;;;;23.90;9.63;;;4.10;99.90;;;;;;5015868;28;20213;-83
2021/04/21 01:12:12;;;;;;;20.47;9.60;;;4.10;99.90;;;;;;5012077;28;20311;-83
2021/04/21 01:14:45;;;;;;;16.17;8.77;;;4.00;99.90;;;;;;5013429;28;20274;-82
2021/04/21 01:17:15;;;;;;;22.87;9.63;;;4.00;99.90;;;;;;5013780;28;20259;-82
2021/04/21 01:20:09;;;;;;;19.10;9.23;;;4.10;99.90;;;;;;5014130;28;20633;-82
2021/04/21 01:22:51;;;;;;;18.83;9.57;;;4.10;99.90;;;;;;5014668;28;20211;-82
2021/04/21 01:25:23;;;;;;;17.40;9.27;;;4.10;99.90;;;;;;5014602;28;20726;-83
2021/04/21 01:27:59;;;;;;;23.03;9.77;;;4.10;99.90;;;;;;5015565;28;20200;-82
2021/04/21 01:30:28;;;;;;;17.63;9.73;;;4.00;99.90;;;;;;5009820;28;20211;-83
2021/04/21 01:32:58;;;;;;;17.83;9.43;;;4.00;99.90;;;;;;5016189;28;20970;-83
2021/04/21 01:35:26;;;;;;;15.43;8.80;;;4.00;99.90;;;;;;5010359;28;20230;-83
2021/04/21 01:37:57;;;;;;;18.50;9.70;;;3.90;99.90;;;;;;5010268;28;20784;-83
2021/04/21 01:40:29;;;;;;;16.70;9.50;;;3.90;99.90;;;;;;5015951;28;20680;-82
2021/04/21 01:43:02;;;;;;;22.83;9.80;;;3.90;99.90;;;;;;5009715;28;20295;-83
2021/04/21 01:45:31;;;;;;;20.60;9.90;;;3.90;99.90;;;;;;5014195;28;20250;-83
2021/04/21 01:48:01;;;;;;;18.20;9.03;;;3.90;99.90;;;;;;5015115;28;20215;-82
2021/04/21 01:50:28;;;;;;;19.83;10.23;;;3.90;99.90;;;;;;5011347;28;20212;-83
2021/04/21 01:53:00;;;;;;;23.53;10.47;;;3.80;99.90;;;;;;5017270;28;20209;-83
2021/04/21 01:55:55;;;;;;;19.07;9.90;;;3.80;99.90;;;;;;5014917;28;20743;-83
2021/04/21 01:58:33;;;;;;;19.83;9.70;;;3.80;99.90;;;;;;5012129;28;20201;-84
2021/04/21 02:01:10;;;;;;;18.27;9.47;;;3.70;99.90;;;;;;5031468;28;20204;-84
2021/04/21 02:03:41;;;;;;;18.23;9.50;;;3.70;99.90;;;;;;5038761;28;20230;-84
2021/04/21 02:06:45;;;;;;;18.23;9.60;;;3.70;99.90;;;;;;5028431;28;20213;-83
2021/04/21 02:09:28;;;;;;;18.43;9.73;;;3.70;99.90;;;;;;5016170;28;20295;-83
2021/04/21 02:12:05;;;;;;;19.27;9.90;;;3.60;99.90;;;;;;5015681;28;20247;-83
2021/04/21 02:14:42;;;;;;;18.90;9.87;;;3.60;99.90;;;;;;5017197;28;20224;-83
2021/04/21 02:17:18;;;;;;;19.17;10.47;;;3.70;99.90;;;;;;5017231;28;20237;-83
2021/04/21 02:19:50;;;;;;;17.70;9.73;;;3.70;99.90;;;;;;5017896;28;21149;-83
2021/04/21 02:22:32;;;;;;;19.33;10.33;;;3.70;99.90;;;;;;5015106;28;20308;-83
2021/04/21 02:25:18;;;;;;;19.57;9.60;;;3.70;99.90;;;;;;5019398;28;20220;-83
2021/04/21 02:27:54;;;;;;;21.50;10.33;;;3.70;99.90;;;;;;5017712;28;20227;-83
2021/04/21 02:30:29;;;;;;;20.77;10.03;;;3.60;99.90;;;;;;5018042;28;20245;-84
2021/04/21 02:33:05;;;;;;;18.10;9.47;;;3.60;99.90;;;;;;5017359;28;20294;-83
2021/04/21 02:35:41;;;;;;;18.73;9.97;;;3.60;99.90;;;;;;5012847;28;20623;-83
2021/04/21 02:38:17;;;;;;;21.70;9.53;;;3.60;99.90;;;;;;5016397;28;20188;-83
2021/04/21 02:40:53;;;;;;;20.87;9.37;;;3.60;99.90;;;;;;5010118;28;20621;-82
2021/04/21 02:43:37;;;;;;;21.37;9.57;;;3.70;99.90;;;;;;5015429;28;20609;-82
2021/04/21 02:46:17;;;;;;;19.63;9.50;;;3.70;99.90;;;;;;5013317;28;20286;-83
2021/04/21 02:48:59;;;;;;;19.90;9.40;;;3.70;99.90;;;;;;5015436;28;20677;-83
2021/04/21 02:51:36;;;;;;;21.90;9.80;;;3.70;99.90;;;;;;5014103;28;20216;-83
2021/04/21 02:54:18;;;;;;;19.80;8.97;;;3.70;99.90;;;;;;5011909;28;20397;-83
2021/04/21 02:57:00;;;;;;;19.07;9.87;;;3.80;99.90;;;;;;5014901;28;20220;-83
2021/04/21 02:59:32;;;;;;;17.67;9.00;;;3.80;99.90;;;;;;5011523;28;20204;-84
2021/04/21 03:02:06;;;;;;;14.57;8.23;;;3.90;99.90;;;;;;5013438;28;20282;-83
2021/04/21 03:04:40;;;;;;;18.60;9.23;;;3.90;99.90;;;;;;5014308;28;20315;-82
2021/04/21 03:07:14;;;;;;;19.50;9.70;;;3.90;99.90;;;;;;5014793;28;20196;-82
2021/04/21 03:09:48;;;;;;;17.20;9.63;;;4.00;99.90;;;;;;5011568;28;20212;-83
2021/04/21 03:12:19;;;;;;;18.57;9.40;;;4.00;99.90;;;;;;5014352;28;20224;-83
2021/04/21 03:15:03;;;;;;;16.13;8.87;;;4.00;99.90;;;;;;5013437;28;20771;-82
2021/04/21 03:17:31;;;;;;;19.93;9.40;;;4.10;99.90;;;;;;5011534;28;20283;-83
2021/04/21 03:20:02;;;;;;;21.10;8.93;;;4.10;99.90;;;;;;5016098;28;20204;-82
2021/04/21 03:22:31;;;;;;;16.93;8.77;;;4.10;99.90;;;;;;5010162;28;20205;-83
2021/04/21 03:25:03;;;;;;;19.13;9.77;;;4.20;99.90;;;;;;5013389;28;20252;-82
2021/04/21 03:27:33;;;;;;;22.97;10.63;;;4.20;99.90;;;;;;5012906;28;20209;-83
2021/04/21 03:30:03;;;;;;;18.83;10.53;;;4.30;99.90;;;;;;5011226;28;20623;-83
2021/04/21 03:32:36;;;;;;;16.60;9.83;;;4.30;99.90;;;;;;5017572;28;20695;-84
2021/04/21 03:35:05;;;;;;;23.93;10.60;;;4.40;99.90;;;;;;5014634;28;20224;-83
2021/04/21 03:37:41;;;;;;;19.57;9.80;;;4.40;99.90;;;;;;5014622;28;20261;-83
2021/04/21 03:40:25;;;;;;;15.83;9.03;;;4.40;99.90;;;;;;5016670;28;20215;-83
2021/04/21 03:42:52;;;;;;;17.20;9.93;;;4.50;99.90;;;;;;5028701;28;20208;-84
2021/04/21 03:45:57;;;;;;;18.57;9.27;;;4.50;99.90;;;;;;5037128;28;20224;-83
2021/04/21 03:48:25;;;;;;;21.00;9.90;;;4.50;99.90;;;;;;5039012;28;20249;-83
2021/04/21 03:50:55;;;;;;;20.37;10.07;;;4.50;99.90;;;;;;5017217;28;21880;-83
2021/04/21 03:53:25;;;;;;;21.20;9.50;;;4.50;99.90;;;;;;5013927;28;20215;-83
2021/04/21 03:55:55;;;;;;;17.87;10.03;;;4.50;99.90;;;;;;5015556;28;20298;-83
2021/04/21 03:58:25;;;;;;;15.57;9.40;;;4.50;99.90;;;;;;5013076;28;20203;-83
2021/04/21 04:01:02;;;;;;;19.77;9.80;;;4.60;99.90;;;;;;5012850;28;20671;-81
2021/04/21 04:03:31;;;;;;;16.77;9.03;;;4.50;99.90;;;;;;5012632;28;20215;-83
2021/04/21 04:06:05;;;;;;;19.30;9.43;;;4.50;99.90;;;;;;5013646;28;20731;-82
2021/04/21 04:08:38;;;;;;;19.43;9.50;;;4.40;99.90;;;;;;5016426;28;20192;-82
2021/04/21 04:11:09;;;;;;;21.50;10.57;;;4.50;99.90;;;;;;5014644;28;20228;-83
2021/04/21 04:13:41;;;;;;;18.03;9.63;;;4.40;99.90;;;;;;5013739;28;20242;-82
2021/04/21 04:16:10;;;;;;;21.40;9.50;;;4.50;99.90;;;;;;5010482;28;20201;-82
2021/04/21 04:18:40;;;;;;;24.97;10.30;;;4.50;99.90;;;;;;5009214;28;20552;-83
2021/04/21 04:21:08;;;;;;;22.37;9.77;;;4.60;99.90;;;;;;5015511;28;20623;-82
2021/04/21 04:23:38;;;;;;;21.17;10.37;;;4.70;99.90;;;;;;5012364;28;20270;-82
2021/04/21 04:26:06;;;;;;;19.93;9.47;;;4.80;99.90;;;;;;5018740;28;20203;-82
2021/04/21 04:28:34;;;;;;;18.87;9.23;;;4.70;99.90;;;;;;5004668;28;20342;-82
2021/04/21 04:31:01;;;;;;;22.70;9.27;;;4.70;99.90;;;;;;5004214;28;20262;-81
2021/04/21 04:33:29;;;;;;;20.20;9.80;;;4.70;99.90;;;;;;5005712;28;20291;-82
2021/04/21 04:35:57;;;;;;;18.00;9.73;;;4.70;99.90;;;;;;5005744;28;20217;-83
2021/04/21 04:38:24;;;;;;;15.93;9.13;;;4.70;99.90;;;;;;5010179;28;20207;-82
2021/04/21 04:40:52;;;;;;;16.50;10.17;;;4.70;99.90;;;;;;5012035;28;20211;-83
2021/04/21 04:43:20;;;;;;;18.33;9.70;;;4.70;99.90;;;;;;5010607;28;20204;-83
2021/04/21 04:45:58;;;;;;;18.30;9.47;;;4.80;99.90;;;;;;5016331;28;20242;-82
2021/04/21 04:48:33;;;;;;;18.03;9.80;;;4.90;99.90;;;;;;5013316;28;20208;-81
2021/04/21 04:51:01;;;;;;;16.47;9.57;;;4.90;99.90;;;;;;5010908;28;20223;-82
2021/04/21 04:53:32;;;;;;;24.70;10.03;;;4.90;99.90;;;;;;5010216;28;20239;-81
2021/04/21 04:56:00;;;;;;;16.47;9.13;;;5.00;99.90;;;;;;5006559;28;20208;-82
2021/04/21 04:58:28;;;;;;;16.93;9.20;;;5.10;99.90;;;;;;5007855;28;20200;-83
2021/04/21 05:01:25;;;;;;;19.97;8.93;;;5.10;99.90;;;;;;5014752;28;20197;-82
2021/04/21 05:03:56;;;;;;;19.27;8.90;;;5.10;99.90;;;;;;5013779;28;20279;-82
2021/04/21 05:06:32;;;;;;;18.93;9.20;;;5.10;99.90;;;;;;5015710;28;22022;-83
2021/04/21 05:09:29;;;;;;;28.83;10.23;;;5.10;99.90;;;;;;5007551;28;20200;-83
2021/04/21 05:11:58;;;;;;;23.97;9.70;;;5.10;99.90;;;;;;5010204;28;21676;-83
2021/04/21 05:14:26;;;;;;;24.00;9.97;;;5.10;99.90;;;;;;5013909;28;20243;-83
2021/04/21 05:21:27;;;;;;;18.93;9.90;;;5.20;99.90;;;;;;4951734;28;20273;-82
2021/04/21 05:24:42;;;;;;;19.47;9.23;;;5.30;99.90;;;;;;4913476;29;20227;-81
2021/04/21 05:27:57;;;;;;;21.40;9.20;;;5.40;99.90;;;;;;4975366;28;20195;-82
2021/04/21 05:31:01;;;;;;;17.13;9.23;;;5.50;99.90;;;;;;5037437;28;20205;-83
2021/04/21 05:34:11;;;;;;;34.23;9.47;;;5.60;99.90;;;;;;5022804;28;20196;-81
2021/04/21 05:37:10;;;;;;;22.13;10.40;;;5.70;99.90;;;;;;4997063;28;20217;-82
2021/04/21 05:40:11;;;;;;;18.40;10.30;;;5.80;99.90;;;;;;5007857;28;20692;-82
2021/04/21 05:43:30;;;;;;;18.93;10.10;;;5.90;99.90;;;;;;4991369;28;20208;-82
2021/04/21 05:46:53;;;;;;;19.13;9.60;;;6.00;99.90;;;;;;5004219;28;20222;-82
2021/04/21 05:49:56;;;;;;;23.43;9.87;;;6.00;99.90;;;;;;4941768;28;20311;-81
2021/04/21 05:52:49;;;;;;;22.80;10.13;;;6.00;99.90;;;;;;5012086;28;20247;-82
2021/04/21 05:55:47;;;;;;;21.20;11.00;;;6.10;99.90;;;;;;4978653;28;20228;-82
2021/04/21 06:01:30;;;;;;;21.03;10.17;;;6.20;99.90;;;;;;5007831;28;21103;-82
2021/04/21 06:03:58;;;;;;;23.93;10.00;;;6.20;99.90;;;;;;5012694;28;20272;-82
2021/04/21 06:06:26;;;;;;;17.27;10.03;;;6.30;99.90;;;;;;5014925;28;20236;-81
2021/04/21 06:08:56;;;;;;;21.23;11.10;;;6.40;99.90;;;;;;5012021;28;20212;-83
2021/04/21 06:11:27;;;;;;;30.40;10.70;;;6.40;99.90;;;;;;5012210;28;20227;-82
2021/04/21 06:13:59;;;;;;;22.87;10.43;;;6.50;99.90;;;;;;5017999;28;20217;-82
2021/04/21 06:16:28;;;;;;;32.43;11.23;;;6.50;99.90;;;;;;5013474;28;20204;-82
2021/04/21 06:19:00;;;;;;;30.83;10.83;;;6.60;99.90;;;;;;5010375;28;20258;-82
2021/04/21 06:21:33;;;;;;;22.80;10.63;;;6.60;99.90;;;;;;5012609;28;20232;-82
2021/04/21 06:23:59;;;;;;;24.27;11.83;;;6.60;99.90;;;;;;5011253;28;20232;-82
2021/04/21 06:26:28;;;;;;;19.90;10.87;;;6.60;99.90;;;;;;5012014;28;20208;-81
2021/04/21 06:29:01;;;;;;;22.63;11.53;;;6.60;99.90;;;;;;5009190;28;20200;-81
2021/04/21 06:31:39;;;;;;;22.70;11.03;;;6.70;99.90;;;;;;5012839;28;20448;-81
2021/04/21 06:34:07;;;;;;;24.07;11.97;;;6.70;99.90;;;;;;5013336;28;20266;-81
2021/04/21 06:36:39;;;;;;;33.27;14.07;;;6.70;99.90;;;;;;5019806;28;20213;-82
2021/04/21 06:39:05;;;;;;;31.50;13.43;;;6.60;99.90;;;;;;5025829;28;20219;-82
2021/04/21 06:41:32;;;;;;;26.80;12.63;;;6.60;99.90;;;;;;5026237;28;20192;-83
2021/04/21 06:43:59;;;;;;;29.23;13.30;;;6.60;99.90;;;;;;5016997;28;20216;-82
2021/04/21 06:46:27;;;;;;;35.63;16.23;;;6.70;99.90;;;;;;5013801;28;20577;-83
2021/04/21 06:48:57;;;;;;;31.67;15.53;;;6.70;99.90;;;;;;5011539;28;20236;-82
2021/04/21 06:51:25;;;;;;;33.13;14.13;;;6.60;99.90;;;;;;5013352;28;20216;-82
2021/04/21 06:53:52;;;;;;;31.27;13.77;;;6.60;99.90;;;;;;5012392;28;20599;-82
2021/04/21 06:56:26;;;;;;;47.50;21.80;;;6.70;99.90;;;;;;5009833;28;20212;-82
2021/04/21 06:58:53;;;;;;;29.07;13.93;;;6.70;99.90;;;;;;5010421;28;20605;-82
2021/04/21 07:01:25;;;;;;;30.47;14.80;;;6.80;99.90;;;;;;5012195;28;20268;-82
2021/04/21 07:03:53;;;;;;;28.07;14.63;;;6.70;99.90;;;;;;5009377;28;20224;-82
2021/04/21 07:06:21;;;;;;;32.70;15.33;;;6.90;99.90;;;;;;5011014;28;20192;-82
2021/04/21 07:08:48;;;;;;;38.53;19.63;;;7.00;99.90;;;;;;5022441;28;20242;-82
2021/04/21 07:11:15;;;;;;;34.60;17.37;;;7.10;99.90;;;;;;5038800;28;20215;-82
2021/04/21 07:13:45;;;;;;;43.07;18.33;;;7.20;99.90;;;;;;5037502;28;20223;-82
2021/04/21 07:16:16;;;;;;;33.60;18.03;;;7.30;99.90;;;;;;5022329;28;20224;-81
2021/04/21 07:19:00;;;;;;;34.90;17.57;;;7.30;99.90;;;;;;5018618;28;20208;-82
2021/04/21 07:21:31;;;;;;;38.30;18.00;;;7.40;99.90;;;;;;5015791;28;20328;-82
2021/04/21 07:23:59;;;;;;;36.63;16.70;;;7.40;99.90;;;;;;5015767;28;20228;-81
2021/04/21 07:26:28;;;;;;;44.83;17.93;;;7.40;99.90;;;;;;5015673;28;20227;-82
2021/04/21 07:28:58;;;;;;;42.37;18.37;;;7.40;99.90;;;;;;5010281;28;20623;-82
2021/04/21 07:31:25;;;;;;;35.20;17.33;;;7.50;99.90;;;;;;5016339;28;20383;-82
2021/04/21 07:33:52;;;;;;;31.50;16.23;;;7.60;99.90;;;;;;5015127;28;20228;-79
2021/04/21 07:36:20;;;;;;;33.47;16.80;;;7.70;99.90;;;;;;5015062;28;20220;-82
2021/04/21 07:38:50;;;;;;;36.80;17.70;;;7.70;99.90;;;;;;5013037;28;20250;-81
2021/04/21 07:41:33;;;;;;;30.13;17.50;;;7.80;99.90;;;;;;5016664;28;20720;-81
2021/04/21 07:44:00;;;;;;;34.57;17.10;;;7.90;99.90;;;;;;5010789;28;20251;-81
2021/04/21 07:46:26;;;;;;;35.27;17.17;;;8.00;99.90;;;;;;5008495;28;20196;-81
2021/04/21 07:48:54;;;;;;;38.47;18.10;;;8.00;99.90;;;;;;5008578;28;20374;-82
2021/04/21 07:51:46;;;;;;;37.07;17.80;;;8.10;99.90;;;;;;5011596;28;20772;-81
2021/04/21 07:54:28;;;;;;;36.20;18.37;;;8.10;99.90;;;;;;5013328;28;20230;-80
2021/04/21 07:56:58;;;;;;;42.00;18.50;;;8.30;99.90;;;;;;5008006;28;20247;-81
2021/04/21 07:59:26;;;;;;;42.57;18.50;;;8.30;99.90;;;;;;5007236;28;20712;-80
2021/04/21 08:01:54;;;;;;;41.97;19.37;;;8.40;99.90;;;;;;5013338;28;20205;-81
2021/04/21 08:04:23;;;;;;;36.00;19.53;;;8.40;99.90;;;;;;5010979;28;20655;-81
2021/04/21 08:07:00;;;;;;;36.43;19.33;;;8.60;99.90;;;;;;5011153;28;20642;-81
2021/04/21 08:09:34;;;;;;;36.10;18.63;;;8.70;99.90;;;;;;5018545;28;20921;-81
2021/04/21 08:12:09;;;;;;;35.67;18.67;;;8.90;99.90;;;;;;5016038;28;20263;-81
2021/04/21 08:14:44;;;;;;;30.70;18.03;;;9.00;99.90;;;;;;5015625;28;20770;-82
2021/04/21 08:17:12;;;;;;;43.53;18.87;;;9.00;99.90;;;;;;5012580;28;20744;-82
2021/04/21 08:19:41;;;;;;;38.40;18.40;;;9.30;99.90;;;;;;5010147;28;20222;-81
2021/04/21 08:22:08;;;;;;;45.03;19.13;;;9.50;99.90;;;;;;5011488;28;20239;-81
2021/04/21 08:24:45;;;;;;;40.00;17.67;;;9.80;99.90;;;;;;5018323;28;20213;-80
2021/04/21 08:27:15;;;;;;;31.87;17.37;;;10.10;99.90;;;;;;5013902;28;20584;-81
2021/04/21 08:29:43;;;;;;;31.97;17.37;;;10.50;99.90;;;;;;5009216;28;20211;-81
2021/04/21 08:32:10;;;;;;;31.97;17.50;;;10.80;99.90;;;;;;5014973;28;20227;-81
2021/04/21 08:34:38;;;;;;;33.07;16.77;;;11.10;99.90;;;;;;5012443;28;20263;-82
2021/04/21 08:37:05;;;;;;;27.20;16.00;;;11.20;99.90;;;;;;5011693;28;20243;-82
2021/04/21 08:39:32;;;;;;;30.17;15.93;;;11.20;99.90;;;;;;5012495;28;20291;-81
2021/04/21 08:42:01;;;;;;;29.97;16.43;;;11.30;99.90;;;;;;5012894;28;20211;-82
2021/04/21 08:44:32;;;;;;;29.50;16.53;;;11.30;99.90;;;;;;5009376;28;21039;-80
2021/04/21 08:47:01;;;;;;;27.87;15.73;;;11.40;99.90;;;;;;5008890;28;20632;-82
2021/04/21 08:49:30;;;;;;;29.70;17.23;;;11.60;99.90;;;;;;5007976;28;20260;-82
2021/04/21 08:51:58;;;;;;;30.13;16.90;;;11.60;99.90;;;;;;5015699;28;20463;-82
2021/04/21 08:54:26;;;;;;;29.43;17.53;;;11.80;99.90;;;;;;5031379;28;20213;-83
2021/04/21 08:56:55;;;;;;;30.53;16.57;;;11.90;99.90;;;;;;5038772;28;20207;-83
2021/04/21 08:59:23;;;;;;;30.10;16.17;;;12.10;99.90;;;;;;5035013;28;20200;-82
2021/04/21 09:01:50;;;;;;;28.87;16.70;;;12.30;99.90;;;;;;5014676;28;20196;-82
2021/04/21 09:04:17;;;;;;;36.27;17.20;;;12.40;99.90;;;;;;5014372;28;20228;-81
2021/04/21 09:06:46;;;;;;;32.67;17.23;;;12.40;99.90;;;;;;5006928;28;20227;-82
2021/04/21 09:09:14;;;;;;;29.50;17.10;;;12.50;99.90;;;;;;5010784;28;20201;-83
2021/04/21 09:11:41;;;;;;;31.53;17.83;;;12.60;99.90;;;;;;5008642;28;20227;-83
2021/04/21 09:14:08;;;;;;;29.37;16.87;;;12.90;99.90;;;;;;5007528;28;20243;-83
2021/04/21 09:16:36;;;;;;;29.07;16.27;;;12.90;99.90;;;;;;5009364;28;20209;-83
2021/04/21 09:19:13;;;;;;;32.23;17.37;;;13.40;99.90;;;;;;5007827;28;20216;-82
2021/04/21 09:21:40;;;;;;;33.73;17.40;;;13.80;99.90;;;;;;5011750;28;20212;-82
2021/04/21 09:24:11;;;;;;;26.53;16.77;;;14.40;99.90;;;;;;5015706;28;20216;-83
2021/04/21 09:26:38;;;;;;;27.20;16.63;;;14.50;99.90;;;;;;5011983;28;20294;-82
2021/04/21 09:29:05;;;;;;;28.30;16.77;;;14.40;99.90;;;;;;5014122;28;20208;-82
2021/04/21 09:31:33;;;;;;;29.47;17.20;;;14.30;99.90;;;;;;5008472;28;20716;-82
2021/04/21 09:34:16;;;;;;;29.73;16.67;;;14.60;99.90;;;;;;5013418;28;20655;-82
2021/04/21 09:36:44;;;;;;;30.00;15.53;;;14.80;99.90;;;;;;5015592;28;20241;-83
2021/04/21 09:39:16;;;;;;;27.07;16.87;;;14.80;99.90;;;;;;5014799;28;20219;-81
2021/04/21 09:41:43;;;;;;;24.70;15.30;;;14.70;99.90;;;;;;5012658;28;20715;-82
2021/04/21 09:44:18;;;;;;;24.90;15.57;;;14.90;99.90;;;;;;5015045;28;20283;-82
2021/04/21 09:46:49;;;;;;;29.33;16.40;;;15.40;99.90;;;;;;5012795;28;20215;-83
2021/04/21 09:49:36;;;;;;;26.97;15.33;;;15.60;99.90;;;;;;5013799;28;20254;-83
2021/04/21 09:52:26;;;;;;;24.83;15.23;;;15.70;99.90;;;;;;5008950;28;20295;-82
2021/04/21 09:54:52;;;;;;;27.83;15.50;;;16.20;99.90;;;;;;5032200;28;20220;-83
2021/04/21 09:57:23;;;;;;;28.23;16.33;;;16.10;99.90;;;;;;5034881;28;20193;-82
2021/04/21 09:59:57;;;;;;;24.70;16.40;;;15.90;99.90;;;;;;5017488;28;20234;-82
2021/04/21 10:02:35;;;;;;;26.70;16.23;;;16.10;99.90;;;;;;5014774;28;20266;-83
2021/04/21 10:05:33;;;;;;;27.67;15.43;;;16.10;99.90;;;;;;5014750;28;20232;-82
2021/04/21 10:08:17;;;;;;;31.60;17.47;;;16.50;99.90;;;;;;4968440;28;21151;-82
2021/04/21 10:10:46;;;;;;;27.23;17.10;;;16.70;99.90;;;;;;5013421;28;20212;-82
2021/04/21 10:13:18;;;;;;;26.57;17.50;;;16.70;99.90;;;;;;5014578;28;21086;-82
2021/04/21 10:15:46;;;;;;;28.43;16.70;;;16.90;99.90;;;;;;5009105;28;20870;-82
2021/04/21 10:18:14;;;;;;;29.03;17.30;;;16.80;99.90;;;;;;5010095;28;20609;-82
2021/04/21 10:20:43;;;;;;;27.97;16.70;;;16.90;99.90;;;;;;5012262;28;20209;-82
2021/04/21 10:23:13;;;;;;;31.10;17.93;;;16.90;99.90;;;;;;5014407;28;20204;-82
2021/04/21 10:25:41;;;;;;;29.33;18.43;;;17.00;99.90;;;;;;5010194;28;20215;-82
2021/04/21 10:28:09;;;;;;;27.37;17.40;;;17.20;99.90;;;;;;5012077;28;20239;-82
2021/04/21 10:30:36;;;;;;;30.33;17.07;;;17.00;99.90;;;;;;5014176;28;20208;-82
2021/04/21 10:33:03;;;;;;;28.80;17.50;;;17.20;99.90;;;;;;5014418;28;20224;-82
2021/04/21 10:35:30;;;;;;;25.13;16.50;;;17.40;99.90;;;;;;5016098;28;20224;-82
2021/04/21 10:38:29;;;;;;;30.87;16.27;;;17.50;99.90;;;;;;5020309;28;20197;-83
2021/04/21 10:41:22;;;;;;;32.00;16.27;;;17.70;99.90;;;;;;5032806;28;20227;-83
2021/04/21 10:43:51;;;;;;;27.43;14.63;;;18.10;99.90;;;;;;5031739;28;20266;-83
2021/04/21 10:46:18;;;;;;;21.50;13.43;;;18.10;99.90;;;;;;4998326;28;20232;-82
2021/04/21 10:48:46;;;;;;;21.70;13.50;;;18.00;99.90;;;;;;5013013;28;20239;-82
2021/04/21 10:51:32;;;;;;;19.63;12.63;;;17.70;99.90;;;;;;5014285;28;20219;-82
2021/04/21 10:54:02;;;;;;;28.70;14.00;;;17.40;99.90;;;;;;5010189;28;20240;-82
2021/04/21 10:57:25;;;;;;;20.30;12.80;;;17.00;99.90;;;;;;5010903;28;20263;-82
2021/04/21 11:00:25;;;;;;;23.97;12.70;;;16.60;99.90;;;;;;5009612;28;20243;-83
2021/04/21 11:03:28;;;;;;;21.00;13.10;;;16.50;99.90;;;;;;5028556;28;20201;-83
2021/04/21 11:05:59;;;;;;;25.43;14.60;;;16.70;99.90;;;;;;5028531;28;20676;-83
2021/04/21 11:08:27;;;;;;;30.07;14.27;;;16.80;99.90;;;;;;5007148;28;20208;-82
2021/04/21 11:10:58;;;;;;;25.20;15.30;;;17.10;99.90;;;;;;5014435;28;20240;-83
2021/04/21 11:13:47;;;;;;;32.13;17.13;;;17.30;99.90;;;;;;5013311;28;20712;-83
2021/04/21 11:16:35;;;;;;;31.97;17.90;;;17.80;99.90;;;;;;5005774;28;20208;-83
2021/04/21 11:19:28;;;;;;;29.70;17.53;;;17.90;99.90;;;;;;5004853;28;20216;-82
2021/04/21 11:22:24;;;;;;;27.57;16.47;;;18.00;99.90;;;;;;5009957;28;20287;-82
2021/04/21 11:28:56;;;;;;;32.67;16.17;;;18.60;99.90;;;;;;4994631;28;20262;-83
2021/04/21 11:31:23;;;;;;;27.90;17.50;;;19.00;99.90;;;;;;5001536;28;20234;-82
2021/04/21 11:33:50;;;;;;;31.23;15.60;;;19.10;99.90;;;;;;5007764;28;20312;-81
2021/04/21 11:43:39;;;;;;;22.90;14.57;;;20.00;99.90;;;;;;4964753;28;20192;-83
2021/04/21 11:46:06;;;;;;;26.00;13.97;;;19.70;99.90;;;;;;4958497;28;20229;-75
2021/04/21 11:48:39;;;;;;;25.43;14.70;;;19.50;99.90;;;;;;4965819;28;20210;-75
2021/04/21 11:51:16;;;;;;;21.80;14.00;;;19.10;99.90;;;;;;4956839;28;20217;-74
2021/04/21 11:53:43;;;;;;;26.07;13.50;;;18.90;99.90;;;;;;4963641;28;21261;-75
2021/04/21 11:56:10;;;;;;;21.27;12.97;;;18.50;99.90;;;;;;4958948;28;20804;-74
2021/04/21 11:58:40;;;;;;;22.03;11.80;;;18.20;99.90;;;;;;4962967;28;20208;-74
2021/04/21 12:01:09;;;;;;;23.60;13.67;;;18.20;99.90;;;;;;4973544;28;20607;-73
2021/04/21 12:03:40;;;;;;;20.73;11.70;;;18.20;99.90;;;;;;4970479;28;20210;-73
2021/04/21 12:06:08;;;;;;;19.50;11.83;;;18.10;99.90;;;;;;4968445;28;20229;-75
2021/04/21 12:08:37;;;;;;;20.97;12.07;;;17.80;99.90;;;;;;4966154;28;20309;-75
2021/04/21 12:11:05;;;;;;;18.20;11.40;;;17.70;99.90;;;;;;4962078;28;20214;-74
2021/04/21 12:13:33;;;;;;;19.93;10.93;;;17.50;99.90;;;;;;4966398;28;20788;-74
2021/04/21 12:16:08;;;;;;;15.47;10.40;;;17.60;99.90;;;;;;4969014;28;20256;-74
2021/04/21 12:18:38;;;;;;;17.67;10.87;;;17.70;99.90;;;;;;4965229;28;20264;-73
2021/04/21 12:21:21;;;;;;;18.17;10.60;;;17.80;99.90;;;;;;4966485;28;20267;-75
2021/04/21 12:23:49;;;;;;;18.87;12.57;;;17.80;99.90;;;;;;4965767;28;20568;-74
2021/04/21 12:26:20;;;;;;;20.83;11.97;;;17.70;99.90;;;;;;4967182;28;20302;-76
2021/04/21 12:28:48;;;;;;;21.43;12.67;;;17.60;99.90;;;;;;4968190;28;20734;-73
2021/04/21 12:31:16;;;;;;;19.77;12.40;;;17.50;99.90;;;;;;4965521;28;20205;-72
2021/04/21 12:33:43;;;;;;;19.47;12.07;;;17.40;99.90;;;;;;4966494;28;20321;-73
2021/04/21 12:36:10;;;;;;;21.70;13.47;;;17.20;99.90;;;;;;4962496;28;20775;-72
2021/04/21 12:38:38;;;;;;;26.20;13.00;;;17.10;99.90;;;;;;4962612;28;20348;-72
2021/04/21 12:41:15;;;;;;;19.97;11.67;;;16.60;99.90;;;;;;4956256;28;20736;-73
2021/04/21 12:43:42;;;;;;;19.57;11.00;;;16.20;99.90;;;;;;4955823;28;20321;-73
2021/04/21 12:46:27;;;;;;;17.13;11.20;;;15.90;99.90;;;;;;4966580;28;20496;-72
2021/04/21 12:48:55;;;;;;;18.70;11.80;;;15.40;99.90;;;;;;4960829;28;20214;-72
2021/04/21 12:51:24;;;;;;;21.73;11.83;;;15.10;99.90;;;;;;4947911;28;20238;-73
2021/04/21 12:53:51;;;;;;;18.03;11.00;;;14.90;99.90;;;;;;4954180;28;20225;-77
2021/04/21 12:56:18;;;;;;;21.80;11.43;;;14.70;99.90;;;;;;4966694;28;20305;-73
2021/04/21 12:58:47;;;;;;;17.47;11.43;;;14.60;99.90;;;;;;4957297;28;20288;-75
2021/04/21 13:01:19;;;;;;;19.40;12.10;;;14.40;99.90;;;;;;4968120;28;20205;-73
2021/04/21 13:04:00;;;;;;;20.93;12.77;;;14.30;99.90;;;;;;4963885;28;20228;-73
2021/04/21 13:06:41;;;;;;;20.60;12.73;;;14.10;99.90;;;;;;4970088;28;20232;-75
2021/04/21 13:09:13;;;;;;;20.73;11.57;;;13.90;99.90;;;;;;4968583;28;20268;-75
2021/04/21 13:11:41;;;;;;;19.30;11.50;;;13.90;99.90;;;;;;4977470;28;20683;-75
2021/04/21 13:14:09;;;;;;;18.00;11.23;;;13.80;99.90;;;;;;4968277;28;20233;-75
2021/04/21 13:16:38;;;;;;;18.90;11.43;;;13.80;99.90;;;;;;4961856;28;20601;-76
2021/04/21 13:19:24;;;;;;;19.00;11.60;;;13.80;99.90;;;;;;4962491;28;20237;-73
2021/04/21 13:22:03;;;;;;;20.43;11.30;;;13.80;99.90;;;;;;4963438;28;20267;-73
2021/04/21 13:24:37;;;;;;;18.73;10.47;;;13.80;99.90;;;;;;4963419;28;20359;-75
2021/04/21 13:27:04;;;;;;;21.17;12.07;;;13.90;99.90;;;;;;4963719;28;20307;-73
2021/04/21 13:29:32;;;;;;;21.30;11.70;;;13.80;99.90;;;;;;4962066;28;20209;-71